Terminal Aerodrome Forecast
Issued by NWS

Home | Current Version | Previous Version | Text Only | Print | Product List | Glossary Off
Versions: 1 2 3 4 5 6 7 8 9 10 11 12 13 14 15 16 17 18 19

000
FTUS43 KMPX 281737
TAFRNH
TAF
KRNH 281737Z 2818/2918 20012G22KT P6SM FEW060 SCT250
     FM290100 17006KT P6SM BKN250
     FM290700 16004KT 6SM SHRA SCT015 OVC060
     FM291100 18004KT P6SM OVC015
     FM291700 26007KT 5SM -TSRA BR OVC020CB=

USA.gov is the U.S. government's official web portal to all federal, state and local government web resources and services.